JAT150 SCQP-SCEL
Flight info
| Callsign | JAT150 |
|---|---|
| Flight time | 0h 53m |
| Altitude | 38000 |
| Route | KETIR3C KETIR UQ802 EROLO EROLO8A |
| Aircraft | A20N/M-SDE2E3FGHIRWXY/LB1 |
Departure
| Time | 2026-05-08 22:34 |
|---|---|
| Airport | La Araucanía International Airport (SCQP) |
Arrival
| Time | 2026-05-08 23:27 |
|---|---|
| Airport | Comodoro Arturo Merino Benítez International Airport (SCEL) |
| Time | Latitude | Longitude | Altitude | Speed | Heading |
|---|---|---|---|---|---|
| 2026-05-08 22:18 | -38.92746 | -72.64781 | 313 ft | 0 kts | 108° |
| 2026-05-08 22:21 | -38.92744 | -72.64787 | 313 ft | 2 kts | 108° |
| 2026-05-08 22:22 | -38.92740 | -72.64806 | 303 ft | 2 kts | 108° |
| 2026-05-08 22:22 | -38.92735 | -72.64824 | 312 ft | 2 kts | 108° |
| 2026-05-08 22:22 | -38.92731 | -72.64842 | 313 ft | 2 kts | 106° |
| 2026-05-08 22:22 | -38.92728 | -72.64861 | 312 ft | 1 kts | 109° |
| 2026-05-08 22:23 | -38.92725 | -72.64870 | 311 ft | 1 kts | 127° |
| 2026-05-08 22:23 | -38.92720 | -72.64878 | 312 ft | 1 kts | 145° |
| 2026-05-08 22:23 | -38.92713 | -72.64883 | 311 ft | 1 kts | 164° |
| 2026-05-08 22:23 | -38.92706 | -72.64886 | 308 ft | 1 kts | 181° |
| 2026-05-08 22:24 | -38.92698 | -72.64885 | 309 ft | 1 kts | 193° |
| 2026-05-08 22:24 | -38.92690 | -72.64883 | 313 ft | 1 kts | 195° |
| 2026-05-08 22:24 | -38.92686 | -72.64881 | 313 ft | 0 kts | 198° |
| 2026-05-08 22:27 | -38.92690 | -72.64883 | 313 ft | 2 kts | 199° |
| 2026-05-08 22:27 | -38.92706 | -72.64891 | 309 ft | 4 kts | 202° |
| 2026-05-08 22:28 | -38.92744 | -72.64909 | 310 ft | 6 kts | 199° |
| 2026-05-08 22:28 | -38.92796 | -72.64930 | 313 ft | 9 kts | 198° |
| 2026-05-08 22:28 | -38.92850 | -72.64952 | 313 ft | 7 kts | 198° |
| 2026-05-08 22:28 | -38.92879 | -72.65005 | 313 ft | 9 kts | 269° |
| 2026-05-08 22:29 | -38.92862 | -72.65098 | 313 ft | 13 kts | 284° |
| 2026-05-08 22:29 | -38.92842 | -72.65202 | 314 ft | 10 kts | 283° |
| 2026-05-08 22:29 | -38.92872 | -72.65274 | 315 ft | 11 kts | 201° |
| 2026-05-08 22:29 | -38.92955 | -72.65309 | 315 ft | 14 kts | 198° |
| 2026-05-08 22:30 | -38.93062 | -72.65352 | 313 ft | 18 kts | 197° |
| 2026-05-08 22:30 | -38.93191 | -72.65403 | 312 ft | 21 kts | 196° |
| 2026-05-08 22:30 | -38.93334 | -72.65458 | 311 ft | 22 kts | 197° |
| 2026-05-08 22:30 | -38.93473 | -72.65512 | 311 ft | 17 kts | 197° |
| 2026-05-08 22:31 | -38.93556 | -72.65530 | 312 ft | 9 kts | 159° |
| 2026-05-08 22:31 | -38.93603 | -72.65513 | 312 ft | 5 kts | 184° |
| 2026-05-08 22:31 | -38.93616 | -72.65557 | 311 ft | 7 kts | 269° |
| 2026-05-08 22:31 | -38.93606 | -72.65572 | 311 ft | 0 kts | 14° |
| 2026-05-08 22:32 | -38.93600 | -72.65566 | 311 ft | 3 kts | 33° |
| 2026-05-08 22:32 | -38.93587 | -72.65557 | 313 ft | 0 kts | 22° |
| 2026-05-08 22:33 | -38.93583 | -72.65555 | 313 ft | 10 kts | 22° |
| 2026-05-08 22:33 | -38.93249 | -72.65420 | 312 ft | 88 kts | 17° |
| 2026-05-08 22:33 | -38.92456 | -72.65106 | 315 ft | 147 kts | 18° |
| 2026-05-08 22:33 | -38.91402 | -72.64686 | 862 ft | 161 kts | 18° |
| 2026-05-08 22:34 | -38.90337 | -72.64240 | 1586 ft | 165 kts | 19° |
| 2026-05-08 22:34 | -38.89198 | -72.63764 | 2143 ft | 179 kts | 19° |
| 2026-05-08 22:34 | -38.87958 | -72.63266 | 2767 ft | 193 kts | 18° |
| 2026-05-08 22:34 | -38.86626 | -72.62784 | 3404 ft | 212 kts | 15° |
| 2026-05-08 22:35 | -38.85132 | -72.62285 | 4115 ft | 231 kts | 17° |
| 2026-05-08 22:35 | -38.83517 | -72.61719 | 4937 ft | 248 kts | 14° |
| 2026-05-08 22:35 | -38.81752 | -72.61230 | 5672 ft | 268 kts | 13° |
| 2026-05-08 22:35 | -38.79885 | -72.60750 | 6635 ft | 277 kts | 12° |
| 2026-05-08 22:36 | -38.77993 | -72.60258 | 7580 ft | 285 kts | 12° |
| 2026-05-08 22:36 | -38.75992 | -72.59720 | 8488 ft | 296 kts | 12° |
| 2026-05-08 22:36 | -38.73948 | -72.59153 | 9395 ft | 305 kts | 12° |
| 2026-05-08 22:36 | -38.71844 | -72.58566 | 10322 ft | 316 kts | 12° |
| 2026-05-08 22:37 | -38.69613 | -72.57948 | 10763 ft | 341 kts | 12° |
| 2026-05-08 22:37 | -38.67208 | -72.57284 | 11159 ft | 365 kts | 12° |
| 2026-05-08 22:37 | -38.64684 | -72.56590 | 11890 ft | 376 kts | 12° |
| 2026-05-08 22:37 | -38.62099 | -72.55880 | 12715 ft | 383 kts | 11° |
| 2026-05-08 22:38 | -38.59461 | -72.55156 | 13501 ft | 392 kts | 11° |
| 2026-05-08 22:38 | -38.57678 | -72.54668 | 14020 ft | 398 kts | 11° |
| 2026-05-08 22:39 | -38.49205 | -72.52348 | 16044 ft | 424 kts | 11° |
| 2026-05-08 22:39 | -38.46290 | -72.51552 | 16720 ft | 433 kts | 11° |
| 2026-05-08 22:39 | -38.43334 | -72.50744 | 17372 ft | 440 kts | 10° |
| 2026-05-08 22:39 | -38.40294 | -72.49915 | 18022 ft | 449 kts | 10° |
| 2026-05-08 22:40 | -38.37211 | -72.49075 | 18656 ft | 457 kts | 10° |
| 2026-05-08 22:40 | -38.34089 | -72.48225 | 19266 ft | 462 kts | 10° |
| 2026-05-08 22:40 | -38.30927 | -72.47364 | 19917 ft | 467 kts | 10° |
| 2026-05-08 22:40 | -38.27734 | -72.46497 | 20517 ft | 473 kts | 10° |
| 2026-05-08 22:41 | -38.24490 | -72.45616 | 21121 ft | 478 kts | 10° |
| 2026-05-08 22:41 | -38.21221 | -72.44709 | 21707 ft | 484 kts | 11° |
| 2026-05-08 22:41 | -38.17918 | -72.43779 | 22329 ft | 489 kts | 11° |
| 2026-05-08 22:41 | -38.14566 | -72.42835 | 22904 ft | 495 kts | 11° |
| 2026-05-08 22:42 | -38.11180 | -72.41884 | 23449 ft | 501 kts | 11° |
| 2026-05-08 22:42 | -38.07765 | -72.40927 | 23994 ft | 506 kts | 11° |
| 2026-05-08 22:42 | -38.04348 | -72.39971 | 24485 ft | 510 kts | 11° |
| 2026-05-08 22:42 | -38.00855 | -72.38997 | 24900 ft | 517 kts | 10° |
| 2026-05-08 22:43 | -37.97325 | -72.38014 | 25373 ft | 521 kts | 10° |
| 2026-05-08 22:43 | -37.93767 | -72.37023 | 25819 ft | 526 kts | 10° |
| 2026-05-08 22:43 | -37.90167 | -72.36022 | 26246 ft | 532 kts | 10° |
| 2026-05-08 22:43 | -37.86537 | -72.35015 | 26669 ft | 537 kts | 10° |
| 2026-05-08 22:44 | -37.82869 | -72.33997 | 27082 ft | 542 kts | 10° |
| 2026-05-08 22:44 | -37.79162 | -72.32970 | 27485 ft | 547 kts | 10° |
| 2026-05-08 22:44 | -37.75432 | -72.31937 | 27883 ft | 551 kts | 10° |
| 2026-05-08 22:44 | -37.71668 | -72.30896 | 28281 ft | 555 kts | 10° |
| 2026-05-08 22:45 | -37.67880 | -72.29849 | 28650 ft | 560 kts | 10° |
| 2026-05-08 22:45 | -37.64057 | -72.28794 | 29021 ft | 564 kts | 10° |
| 2026-05-08 22:45 | -37.60215 | -72.27672 | 29379 ft | 569 kts | 11° |
| 2026-05-08 22:45 | -37.56353 | -72.26480 | 29736 ft | 573 kts | 12° |
| 2026-05-08 22:46 | -37.52467 | -72.25268 | 30090 ft | 577 kts | 12° |
| 2026-05-08 22:46 | -37.48558 | -72.24058 | 30423 ft | 581 kts | 12° |
| 2026-05-08 22:46 | -37.44620 | -72.22848 | 30779 ft | 583 kts | 11° |
| 2026-05-08 22:46 | -37.40672 | -72.21642 | 31156 ft | 585 kts | 11° |
| 2026-05-08 22:47 | -37.36714 | -72.20438 | 31538 ft | 586 kts | 11° |
| 2026-05-08 22:47 | -37.32746 | -72.19233 | 32006 ft | 585 kts | 11° |
| 2026-05-08 22:47 | -37.28792 | -72.18034 | 32492 ft | 583 kts | 11° |
| 2026-05-08 22:47 | -37.24855 | -72.16841 | 32977 ft | 582 kts | 11° |
| 2026-05-08 22:48 | -37.20922 | -72.15650 | 33445 ft | 580 kts | 11° |
| 2026-05-08 22:48 | -37.16998 | -72.14464 | 33900 ft | 579 kts | 11° |
| 2026-05-08 22:48 | -37.13096 | -72.13285 | 34171 ft | 576 kts | 11° |
| 2026-05-08 22:49 | -37.05375 | -72.10957 | 34222 ft | 573 kts | 11° |
| 2026-05-08 22:49 | -36.93735 | -72.07457 | 34218 ft | 572 kts | 11° |
| 2026-05-08 22:50 | -36.85998 | -72.05136 | 34215 ft | 572 kts | 11° |
| 2026-05-08 22:50 | -36.78263 | -72.02820 | 34214 ft | 571 kts | 11° |
| 2026-05-08 22:51 | -36.70535 | -72.00512 | 34209 ft | 570 kts | 11° |
| 2026-05-08 22:51 | -36.62833 | -71.98215 | 34210 ft | 569 kts | 10° |
| 2026-05-08 22:52 | -36.55119 | -71.95920 | 34207 ft | 569 kts | 10° |
| 2026-05-08 22:52 | -36.47432 | -71.93637 | 34202 ft | 568 kts | 10° |
| 2026-05-08 22:53 | -36.39742 | -71.91358 | 34202 ft | 568 kts | 10° |
| 2026-05-08 22:53 | -36.32050 | -71.89084 | 34201 ft | 567 kts | 10° |
| 2026-05-08 22:54 | -36.24361 | -71.86815 | 34197 ft | 568 kts | 10° |
| 2026-05-08 22:54 | -36.16678 | -71.84552 | 34197 ft | 567 kts | 10° |
| 2026-05-08 22:55 | -36.08990 | -71.82292 | 34190 ft | 567 kts | 10° |
| 2026-05-08 22:55 | -36.01312 | -71.80039 | 34191 ft | 567 kts | 10° |
| 2026-05-08 22:56 | -35.93629 | -71.77790 | 34188 ft | 566 kts | 10° |
| 2026-05-08 22:56 | -35.85963 | -71.75550 | 34188 ft | 565 kts | 10° |
| 2026-05-08 22:57 | -35.78305 | -71.73317 | 34185 ft | 565 kts | 9° |
| 2026-05-08 22:57 | -35.70654 | -71.71090 | 34182 ft | 564 kts | 9° |
| 2026-05-08 22:58 | -35.63003 | -71.68868 | 34178 ft | 564 kts | 9° |
| 2026-05-08 22:58 | -35.55415 | -71.66668 | 34177 ft | 563 kts | 9° |
| 2026-05-08 22:59 | -35.47788 | -71.64461 | 34178 ft | 563 kts | 9° |
| 2026-05-08 22:59 | -35.40154 | -71.62255 | 34178 ft | 562 kts | 9° |
| 2026-05-08 23:00 | -35.32525 | -71.60055 | 34171 ft | 562 kts | 9° |
| 2026-05-08 23:00 | -35.24917 | -71.57865 | 34180 ft | 561 kts | 9° |
| 2026-05-08 23:01 | -35.17305 | -71.55679 | 34175 ft | 561 kts | 9° |
| 2026-05-08 23:01 | -35.09706 | -71.53499 | 34184 ft | 561 kts | 9° |
| 2026-05-08 23:02 | -35.02119 | -71.51328 | 34118 ft | 561 kts | 9° |
| 2026-05-08 23:02 | -34.98312 | -71.50242 | 33869 ft | 561 kts | 9° |
| 2026-05-08 23:02 | -34.94519 | -71.49161 | 33610 ft | 560 kts | 9° |
| 2026-05-08 23:03 | -34.90727 | -71.48081 | 33373 ft | 558 kts | 9° |
| 2026-05-08 23:03 | -34.86970 | -71.47009 | 33265 ft | 549 kts | 9° |
| 2026-05-08 23:03 | -34.83283 | -71.45957 | 33001 ft | 540 kts | 9° |
| 2026-05-08 23:03 | -34.79624 | -71.44916 | 32741 ft | 542 kts | 9° |
| 2026-05-08 23:04 | -34.75922 | -71.43868 | 32486 ft | 547 kts | 9° |
| 2026-05-08 23:04 | -34.72207 | -71.42815 | 32106 ft | 549 kts | 9° |
| 2026-05-08 23:04 | -34.68484 | -71.41760 | 31592 ft | 548 kts | 10° |
| 2026-05-08 23:04 | -34.64804 | -71.40600 | 31048 ft | 546 kts | 16° |
| 2026-05-08 23:05 | -34.61305 | -71.38969 | 30452 ft | 545 kts | 21° |
| 2026-05-08 23:05 | -34.57801 | -71.37230 | 29721 ft | 544 kts | 21° |
| 2026-05-08 23:05 | -34.54296 | -71.35490 | 28915 ft | 544 kts | 21° |
| 2026-05-08 23:05 | -34.50792 | -71.33757 | 28099 ft | 544 kts | 21° |
| 2026-05-08 23:06 | -34.47301 | -71.32036 | 27505 ft | 538 kts | 20° |
| 2026-05-08 23:06 | -34.43850 | -71.30338 | 26913 ft | 533 kts | 20° |
| 2026-05-08 23:06 | -34.40425 | -71.28655 | 26266 ft | 529 kts | 20° |
| 2026-05-08 23:06 | -34.37032 | -71.26990 | 25709 ft | 523 kts | 20° |
| 2026-05-08 23:07 | -34.33676 | -71.25344 | 25110 ft | 518 kts | 19° |
| 2026-05-08 23:07 | -34.30339 | -71.23708 | 24513 ft | 515 kts | 19° |
| 2026-05-08 23:07 | -34.27028 | -71.22085 | 23897 ft | 511 kts | 19° |
| 2026-05-08 23:07 | -34.23749 | -71.20481 | 23205 ft | 507 kts | 19° |
| 2026-05-08 23:08 | -34.20508 | -71.18899 | 22703 ft | 498 kts | 19° |
| 2026-05-08 23:08 | -34.17305 | -71.17335 | 22108 ft | 492 kts | 19° |
| 2026-05-08 23:08 | -34.14145 | -71.15796 | 21535 ft | 484 kts | 19° |
| 2026-05-08 23:08 | -34.11049 | -71.14288 | 20969 ft | 477 kts | 20° |
| 2026-05-08 23:09 | -34.07988 | -71.12800 | 20405 ft | 473 kts | 20° |
| 2026-05-08 23:09 | -34.04936 | -71.11318 | 19840 ft | 468 kts | 20° |
| 2026-05-08 23:09 | -34.01926 | -71.09856 | 19242 ft | 464 kts | 20° |
| 2026-05-08 23:09 | -33.98977 | -71.08427 | 18710 ft | 460 kts | 21° |
| 2026-05-08 23:10 | -33.96014 | -71.06990 | 18125 ft | 456 kts | 20° |
| 2026-05-08 23:10 | -33.94032 | -71.06031 | 17750 ft | 452 kts | 21° |
| 2026-05-08 23:10 | -33.90192 | -71.04172 | 17012 ft | 445 kts | 21° |
| 2026-05-08 23:10 | -33.88253 | -71.03234 | 16645 ft | 441 kts | 21° |
| 2026-05-08 23:11 | -33.84520 | -71.01427 | 15926 ft | 432 kts | 21° |
| 2026-05-08 23:11 | -33.81746 | -71.00087 | 15403 ft | 427 kts | 21° |
| 2026-05-08 23:11 | -33.79000 | -70.98763 | 14873 ft | 421 kts | 22° |
| 2026-05-08 23:11 | -33.77171 | -70.97881 | 14506 ft | 419 kts | 22° |
| 2026-05-08 23:12 | -33.74487 | -70.96586 | 14006 ft | 412 kts | 22° |
| 2026-05-08 23:12 | -33.71842 | -70.95309 | 13455 ft | 406 kts | 22° |
| 2026-05-08 23:12 | -33.69274 | -70.94070 | 12964 ft | 399 kts | 22° |
| 2026-05-08 23:12 | -33.66682 | -70.92820 | 12469 ft | 392 kts | 22° |
| 2026-05-08 23:13 | -33.64167 | -70.91608 | 11974 ft | 385 kts | 22° |
| 2026-05-08 23:13 | -33.61703 | -70.90422 | 11501 ft | 379 kts | 22° |
| 2026-05-08 23:13 | -33.59276 | -70.89255 | 11026 ft | 372 kts | 22° |
| 2026-05-08 23:13 | -33.56906 | -70.88078 | 10555 ft | 365 kts | 26° |
| 2026-05-08 23:14 | -33.54715 | -70.86588 | 10145 ft | 357 kts | 33° |
| 2026-05-08 23:14 | -33.52651 | -70.85048 | 10018 ft | 340 kts | 32° |
| 2026-05-08 23:14 | -33.50695 | -70.83604 | 9996 ft | 321 kts | 32° |
| 2026-05-08 23:14 | -33.48837 | -70.82238 | 9997 ft | 303 kts | 32° |
| 2026-05-08 23:15 | -33.47106 | -70.80967 | 9995 ft | 286 kts | 32° |
| 2026-05-08 23:15 | -33.45444 | -70.79747 | 9999 ft | 269 kts | 32° |
| 2026-05-08 23:15 | -33.43895 | -70.78609 | 9996 ft | 253 kts | 32° |
| 2026-05-08 23:15 | -33.42424 | -70.77528 | 9905 ft | 248 kts | 32° |
| 2026-05-08 23:16 | -33.40954 | -70.76447 | 9705 ft | 248 kts | 32° |
| 2026-05-08 23:16 | -33.39473 | -70.75359 | 9298 ft | 252 kts | 32° |
| 2026-05-08 23:16 | -33.37971 | -70.74257 | 8947 ft | 253 kts | 32° |
| 2026-05-08 23:16 | -33.36450 | -70.73141 | 8679 ft | 258 kts | 32° |
| 2026-05-08 23:17 | -33.34943 | -70.72037 | 8411 ft | 256 kts | 32° |
| 2026-05-08 23:17 | -33.33413 | -70.70917 | 8139 ft | 252 kts | 32° |
| 2026-05-08 23:17 | -33.31933 | -70.69837 | 8011 ft | 246 kts | 31° |
| 2026-05-08 23:17 | -33.30316 | -70.69180 | 7984 ft | 256 kts | 5° |
| 2026-05-08 23:18 | -33.28545 | -70.69302 | 7885 ft | 253 kts | 354° |
| 2026-05-08 23:18 | -33.26807 | -70.69530 | 7642 ft | 251 kts | 354° |
| 2026-05-08 23:18 | -33.25076 | -70.69758 | 7348 ft | 249 kts | 354° |
| 2026-05-08 23:18 | -33.23357 | -70.69979 | 7046 ft | 247 kts | 354° |
| 2026-05-08 23:19 | -33.21670 | -70.70188 | 6839 ft | 238 kts | 354° |
| 2026-05-08 23:19 | -33.20066 | -70.70384 | 6722 ft | 226 kts | 354° |
| 2026-05-08 23:19 | -33.18541 | -70.70568 | 6620 ft | 215 kts | 354° |
| 2026-05-08 23:19 | -33.17101 | -70.70754 | 6585 ft | 199 kts | 353° |
| 2026-05-08 23:20 | -33.15743 | -70.70939 | 6229 ft | 197 kts | 353° |
| 2026-05-08 23:20 | -33.14396 | -70.71273 | 5784 ft | 200 kts | 335° |
| 2026-05-08 23:20 | -33.13360 | -70.72302 | 5516 ft | 192 kts | 300° |
| 2026-05-08 23:20 | -33.13084 | -70.73866 | 5346 ft | 199 kts | 261° |
| 2026-05-08 23:21 | -33.13664 | -70.75307 | 5175 ft | 193 kts | 223° |
| 2026-05-08 23:21 | -33.14752 | -70.76235 | 5011 ft | 193 kts | 211° |
| 2026-05-08 23:21 | -33.15874 | -70.77098 | 4993 ft | 193 kts | 211° |
| 2026-05-08 23:21 | -33.17001 | -70.77966 | 4994 ft | 193 kts | 211° |
| 2026-05-08 23:22 | -33.18131 | -70.78842 | 4990 ft | 193 kts | 211° |
| 2026-05-08 23:22 | -33.19307 | -70.79577 | 4977 ft | 185 kts | 190° |
| 2026-05-08 23:22 | -33.20540 | -70.79651 | 4847 ft | 172 kts | 175° |
| 2026-05-08 23:22 | -33.21718 | -70.79529 | 4608 ft | 168 kts | 175° |
| 2026-05-08 23:23 | -33.22869 | -70.79465 | 4387 ft | 163 kts | 176° |
| 2026-05-08 23:23 | -33.23996 | -70.79403 | 4171 ft | 161 kts | 176° |
| 2026-05-08 23:23 | -33.25104 | -70.79344 | 3957 ft | 158 kts | 176° |
| 2026-05-08 23:23 | -33.26193 | -70.79286 | 3752 ft | 155 kts | 177° |
| 2026-05-08 23:24 | -33.27255 | -70.79227 | 3535 ft | 149 kts | 177° |
| 2026-05-08 23:24 | -33.28248 | -70.79175 | 3360 ft | 138 kts | 178° |
| 2026-05-08 23:24 | -33.29199 | -70.79124 | 3195 ft | 139 kts | 178° |
| 2026-05-08 23:24 | -33.30174 | -70.79065 | 3061 ft | 141 kts | 177° |
| 2026-05-08 23:25 | -33.31153 | -70.79010 | 2879 ft | 140 kts | 178° |
| 2026-05-08 23:25 | -33.32127 | -70.78959 | 2685 ft | 140 kts | 177° |
| 2026-05-08 23:25 | -33.33093 | -70.78903 | 2487 ft | 139 kts | 178° |
| 2026-05-08 23:25 | -33.34054 | -70.78863 | 2314 ft | 137 kts | 178° |
| 2026-05-08 23:26 | -33.34996 | -70.78813 | 2119 ft | 137 kts | 178° |
| 2026-05-08 23:26 | -33.35940 | -70.78760 | 1899 ft | 135 kts | 178° |
| 2026-05-08 23:26 | -33.36876 | -70.78712 | 1744 ft | 134 kts | 179° |
| 2026-05-08 23:26 | -33.37810 | -70.78664 | 1591 ft | 134 kts | 178° |
| 2026-05-08 23:27 | -33.38665 | -70.78619 | 1564 ft | 102 kts | 177° |
| 2026-05-08 23:27 | -33.39156 | -70.78590 | 1563 ft | 38 kts | 176° |
| 2026-05-08 23:27 | -33.39382 | -70.78577 | 1564 ft | 19 kts | 179° |
| 2026-05-08 23:27 | -33.39518 | -70.78601 | 1563 ft | 21 kts | 199° |
| 2026-05-08 23:28 | -33.39633 | -70.78661 | 1564 ft | 12 kts | 205° |
| 2026-05-08 23:28 | -33.39716 | -70.78715 | 1564 ft | 15 kts | 212° |
| 2026-05-08 23:28 | -33.39755 | -70.78822 | 1564 ft | 16 kts | 265° |
| 2026-05-08 23:28 | -33.39730 | -70.78882 | 1564 ft | 4 kts | 2° |
| 2026-05-08 23:29 | -33.39688 | -70.78880 | 1564 ft | 8 kts | 2° |
| 2026-05-08 23:29 | -33.39618 | -70.78884 | 1564 ft | 12 kts | 356° |
| 2026-05-08 23:29 | -33.39531 | -70.78890 | 1564 ft | 11 kts | 357° |
| 2026-05-08 23:29 | -33.39493 | -70.78918 | 1564 ft | 6 kts | 280° |
| 2026-05-08 23:30 | -33.39508 | -70.78959 | 1564 ft | 5 kts | 191° |
| 2026-05-08 23:30 | -33.39547 | -70.78965 | 1564 ft | 2 kts | 184° |
| 2026-05-08 23:30 | -33.39564 | -70.78966 | 1564 ft | 0 kts | 183° |